Forside
METAR-TAF:

METAR-TAF

Lufthavne :

Ulan-Ude, Rusland

Breddekreds: 51-50N, længdekreds: 107-36E, højde: 510 m

Aktuelle vejr

Denne rapport blev lavet for 49 minutter siden, kl. 20:00 UTC
Vind 2 kt fra varierende retninger
Temperatur 19°C
Fugtighed 100%
Tryk 1001 hPa
Sigt 10 km eller mere
Brudte skyer i en højde af 3700 ft, Cumulonimbus.

METAR: UIUU 222000Z VRB01MPS 9999 BKN037CB 19/19 Q1001 R26/290250 NOSIG RMK QFE707/0943

Tid: 04:49 (20:49 UTC)

Vejrudsigter

Denne rapport blev lavet for 49 minutter siden, kl. 20:00 UTC
Foreløbig gælder fra 22 på 21 UTC til 23 på 21 UTC
Vind 6 kt fra nord med vindstød på up til 16 kt
Sigt 10 km eller mere
Brudte skyer i en højde af 3000 ft, Cumulonimbus.
let regnbyger
Midlertidig
fra 22 på 21 UTC til 23 på 18 UTC
Vind 19 kt fra varierende retninger
Sigt: 1900 m
Overskyet i en højde af 1100 ft, Cumulonimbus.
tordenbyger, regn,

TAF: UIUU 222000Z 2221/2321 36003G08MPS 9999 -SHRA BKN030CB TEMPO 2221/2318 VRB10MPS 1900 TSRA OVC011CB

Vejrobservationer og prognoser fra mere end 4000 lufthavne (METAR og TAF).

De gule og røde prikker repræsenterer de meteorologiske stationer.

Flyt musen over at se navnet på stationen.

Så klik over at se vejr observationer og prognoser.

At skifte det kort: Klik på de grønne knapper med et sort kors for at zoome ind; på den grønne knap med en bindestreg for at zoome ud; eller på de grønne pile for tilstødende kort.


METAR-TAF: